Time;durP1;ratioP1;P1;durP2;ratioP2;P2;SDS_P1;SDS_P2;PMS_P1;PMS_P2;Temp;Humidity;BMP_temperature;BMP_pressure;BME280_temperature;BME280_humidity;BME280_pressure;Samples;Min_cycle;Max_cycle;Signal;HPM_P1;HPM_P2
2021/01/02 00:01:27;;;;;;;7.30;5.47;;;7.70;71.30;;;;;;4986452;28;20034;-79
2021/01/02 00:04:02;;;;;;;9.93;5.35;;;7.70;71.90;;;;;;4985068;28;20062;-79
2021/01/02 00:06:28;;;;;;;7.25;5.32;;;7.80;71.50;;;;;;4983753;28;20039;-79
2021/01/02 00:09:06;;;;;;;6.55;4.97;;;7.80;71.30;;;;;;4990386;28;20026;-79
2021/01/02 00:11:42;;;;;;;5.80;4.50;;;7.70;71.30;;;;;;4989602;28;20503;-79
2021/01/02 00:14:20;;;;;;;6.38;4.28;;;7.80;71.20;;;;;;4985789;28;20053;-79
2021/01/02 00:17:19;;;;;;;5.68;4.22;;;7.80;71.10;;;;;;4990390;28;20030;-79
2021/01/02 00:20:03;;;;;;;5.97;5.07;;;7.80;71.10;;;;;;4985069;28;20038;-79
2021/01/02 00:22:53;;;;;;;6.55;4.70;;;7.70;70.90;;;;;;4988981;28;20097;-79
2021/01/02 00:25:21;;;;;;;4.47;4.00;;;7.70;70.80;;;;;;4984230;28;20030;-79
2021/01/02 00:28:35;;;;;;;6.68;4.43;;;7.70;70.70;;;;;;4993189;28;20054;-79
2021/01/02 00:31:00;;;;;;;6.15;4.43;;;7.70;70.70;;;;;;4969095;28;20038;-79
2021/01/02 00:33:47;;;;;;;4.78;3.95;;;7.70;71.20;;;;;;4989555;28;20037;-79
2021/01/02 00:36:20;;;;;;;6.72;5.18;;;7.60;70.50;;;;;;4993480;28;20058;-79
2021/01/02 00:38:46;;;;;;;6.25;4.70;;;7.60;70.60;;;;;;4989968;28;20070;-79
2021/01/02 00:41:12;;;;;;;5.43;4.50;;;7.60;70.70;;;;;;4990272;28;20030;-79
2021/01/02 00:43:38;;;;;;;6.25;4.72;;;7.50;70.90;;;;;;4989934;28;20519;-79
2021/01/02 00:46:03;;;;;;;5.47;4.53;;;7.50;71.00;;;;;;4989474;28;20041;-79
2021/01/02 00:48:31;;;;;;;6.57;5.20;;;7.50;71.20;;;;;;4989757;28;20046;-79
2021/01/02 00:51:00;;;;;;;6.18;4.90;;;7.50;71.30;;;;;;4992709;28;20038;-79
2021/01/02 00:54:04;;;;;;;6.90;4.93;;;7.60;71.40;;;;;;4989475;28;20114;-79
2021/01/02 00:56:41;;;;;;;7.90;5.05;;;7.60;71.60;;;;;;4985474;28;20030;-79
2021/01/02 00:59:42;;;;;;;6.97;5.60;;;7.50;71.40;;;;;;4992633;28;20056;-79
2021/01/02 01:02:13;;;;;;;8.27;5.30;;;7.60;71.60;;;;;;4982613;28;20113;-79
2021/01/02 01:05:08;;;;;;;6.72;5.28;;;7.60;71.40;;;;;;4988701;28;20034;-79
2021/01/02 01:07:36;;;;;;;6.20;5.22;;;7.60;71.60;;;;;;4986835;28;20581;-79
2021/01/02 01:10:06;;;;;;;6.80;5.55;;;7.60;71.50;;;;;;4985446;28;20496;-78
2021/01/02 01:12:38;;;;;;;6.55;5.57;;;7.60;71.70;;;;;;4982738;28;20039;-79
2021/01/02 01:15:05;;;;;;;5.60;5.00;;;7.60;71.70;;;;;;4979517;28;20042;-79
2021/01/02 01:17:38;;;;;;;6.90;5.95;;;7.70;71.70;;;;;;4976684;28;20038;-78
2021/01/02 01:20:08;;;;;;;8.05;6.65;;;7.70;71.70;;;;;;4981058;28;20038;-79
2021/01/02 01:22:39;;;;;;;6.78;6.07;;;7.70;71.70;;;;;;4976712;28;20620;-79
2021/01/02 01:25:06;;;;;;;;;;;7.70;71.80;;;;;;4977628;28;20062;-79
2021/01/02 01:27:48;;;;;;;7.55;5.25;;;7.70;72.00;;;;;;4976746;28;20404;-79
2021/01/02 01:30:19;;;;;;;8.35;6.55;;;7.80;71.70;;;;;;4976627;28;20492;-79
2021/01/02 01:33:00;;;;;;;6.55;5.35;;;7.80;71.70;;;;;;4976744;28;20042;-79
2021/01/02 01:35:27;;;;;;;6.82;5.80;;;7.90;71.90;;;;;;4976968;28;20034;-79
2021/01/02 01:37:55;;;;;;;7.22;5.50;;;7.90;71.80;;;;;;4976690;28;20023;-79
2021/01/02 01:40:26;;;;;;;6.72;5.68;;;7.80;71.80;;;;;;4975056;28;20093;-79
2021/01/02 01:43:06;;;;;;;6.72;5.72;;;7.90;71.90;;;;;;4984587;28;20050;-79
2021/01/02 01:45:38;;;;;;;6.70;5.27;;;7.90;72.00;;;;;;5004036;28;20042;-79
2021/01/02 01:48:10;;;;;;;6.35;5.03;;;8.00;72.50;;;;;;5002476;28;20253;-79
2021/01/02 01:51:16;;;;;;;7.90;6.15;;;8.00;71.90;;;;;;5003455;28;20432;-78
2021/01/02 01:54:19;;;;;;;7.57;5.10;;;8.00;71.90;;;;;;5000310;28;20048;-79
2021/01/02 01:56:49;;;;;;;7.95;5.78;;;8.00;71.80;;;;;;5004230;28;20026;-81
2021/01/02 01:59:15;;;;;;;6.47;5.18;;;8.10;71.80;;;;;;5006363;28;20515;-79
2021/01/02 02:01:45;;;;;;;6.75;5.22;;;8.10;71.70;;;;;;4999066;28;20042;-80
2021/01/02 02:04:10;;;;;;;7.13;5.70;;;8.10;71.70;;;;;;4999859;28;20041;-79
2021/01/02 02:06:43;;;;;;;8.23;5.95;;;8.00;71.70;;;;;;5003555;28;20088;-79
2021/01/02 02:09:21;;;;;;;6.35;5.25;;;8.10;71.70;;;;;;5001359;28;20085;-80
2021/01/02 02:12:02;;;;;;;6.18;5.20;;;8.10;71.70;;;;;;5006463;28;20044;-80
2021/01/02 02:14:37;;;;;;;5.95;5.10;;;8.10;71.70;;;;;;5006268;28;20399;-79
2021/01/02 02:17:04;;;;;;;6.07;4.90;;;8.20;71.70;;;;;;5006284;28;20076;-79
2021/01/02 02:19:46;;;;;;;6.53;5.18;;;8.10;71.60;;;;;;5016989;23;20116;-76
2021/01/02 02:22:16;;;;;;;5.75;4.22;;;8.10;71.50;;;;;;4998295;28;20096;-76
2021/01/02 02:24:43;;;;;;;7.23;5.17;;;8.10;71.40;;;;;;4991767;28;20038;-76
2021/01/02 02:27:13;;;;;;;5.50;4.05;;;8.20;71.40;;;;;;4992589;28;20507;-76
2021/01/02 02:29:54;;;;;;;6.43;5.35;;;8.10;71.40;;;;;;5000203;28;20041;-75
2021/01/02 02:32:23;;;;;;;5.80;4.88;;;8.10;71.40;;;;;;4994514;28;20039;-76
2021/01/02 02:34:50;;;;;;;5.40;4.70;;;8.20;71.40;;;;;;4995787;28;20061;-75
2021/01/02 02:37:16;;;;;;;6.78;4.75;;;8.20;71.50;;;;;;5006693;28;20108;-76
2021/01/02 02:39:45;;;;;;;6.28;4.70;;;8.10;71.50;;;;;;5011592;28;20483;-73
2021/01/02 02:42:13;;;;;;;6.32;4.88;;;8.10;71.60;;;;;;5011725;28;20026;-74
2021/01/02 02:44:43;;;;;;;6.43;5.32;;;8.20;71.60;;;;;;5011424;28;20446;-74
2021/01/02 02:47:13;;;;;;;5.82;4.15;;;8.20;71.70;;;;;;4995147;28;20027;-74
2021/01/02 02:49:42;;;;;;;5.72;4.68;;;8.20;71.70;;;;;;4998022;28;20034;-74
2021/01/02 02:52:26;;;;;;;5.63;4.65;;;8.20;71.70;;;;;;4995846;28;20058;-74
2021/01/02 02:54:52;;;;;;;7.05;5.20;;;8.20;71.70;;;;;;5005677;28;20089;-74
2021/01/02 02:57:19;;;;;;;6.25;4.78;;;8.20;71.60;;;;;;5011675;28;20030;-74
2021/01/02 02:59:45;;;;;;;5.53;4.65;;;8.20;71.60;;;;;;5009650;28;20068;-73
2021/01/02 03:02:13;;;;;;;6.63;5.13;;;8.30;71.60;;;;;;5006872;28;20034;-75
2021/01/02 03:04:38;;;;;;;6.03;5.10;;;8.20;71.60;;;;;;5011071;28;20030;-74
2021/01/02 03:07:05;;;;;;;6.82;4.72;;;8.20;71.60;;;;;;4998035;28;20381;-75
2021/01/02 03:09:34;;;;;;;5.78;4.55;;;8.20;71.50;;;;;;5002539;28;20030;-74
2021/01/02 03:12:00;;;;;;;5.88;5.05;;;8.20;71.50;;;;;;5000671;28;20109;-74
2021/01/02 03:14:26;;;;;;;5.85;4.28;;;8.20;71.40;;;;;;5000004;28;20579;-74
2021/01/02 03:16:56;;;;;;;5.57;4.60;;;8.20;71.40;;;;;;4995739;28;20096;-75
2021/01/02 03:19:22;;;;;;;6.72;5.53;;;8.30;71.40;;;;;;5011553;28;20410;-74
2021/01/02 03:21:48;;;;;;;6.15;4.70;;;8.20;71.30;;;;;;5008750;28;20041;-74
2021/01/02 03:24:14;;;;;;;5.60;4.75;;;8.20;71.30;;;;;;5010935;28;20055;-74
2021/01/02 03:26:39;;;;;;;5.43;4.72;;;8.20;71.30;;;;;;5010775;28;20045;-74
2021/01/02 03:29:05;;;;;;;5.32;4.20;;;8.20;71.30;;;;;;5005436;28;20482;-75
2021/01/02 03:31:30;;;;;;;7.05;4.60;;;8.20;71.30;;;;;;5008059;28;20503;-75
2021/01/02 03:33:55;;;;;;;5.93;4.43;;;8.20;71.30;;;;;;5011546;28;20037;-74
2021/01/02 03:36:21;;;;;;;6.63;5.20;;;8.20;71.30;;;;;;5007530;28;20124;-75
2021/01/02 03:38:55;;;;;;;6.75;5.18;;;8.10;71.30;;;;;;5010526;28;20130;-74
2021/01/02 03:41:22;;;;;;;5.90;4.60;;;8.20;71.30;;;;;;5010648;28;20117;-74
2021/01/02 03:43:48;;;;;;;4.93;4.20;;;8.10;71.30;;;;;;5009048;28;20075;-73
2021/01/02 03:46:13;;;;;;;5.68;4.60;;;8.10;71.30;;;;;;5003037;28;20037;-74
2021/01/02 03:48:39;;;;;;;6.60;4.75;;;8.20;71.40;;;;;;5004658;28;20034;-73
2021/01/02 03:51:04;;;;;;;5.32;4.53;;;8.10;71.30;;;;;;5006117;28;20048;-75
2021/01/02 03:53:30;;;;;;;6.32;5.28;;;8.10;71.30;;;;;;5009735;28;20037;-74
2021/01/02 03:55:55;;;;;;;7.35;5.65;;;8.10;71.30;;;;;;5010949;28;20026;-73
2021/01/02 03:58:21;;;;;;;7.05;4.68;;;8.10;71.30;;;;;;5001785;28;20491;-73
2021/01/02 04:00:46;;;;;;;7.22;5.05;;;8.20;71.40;;;;;;5010448;28;20089;-73
2021/01/02 04:03:12;;;;;;;6.30;5.20;;;8.10;71.30;;;;;;5010400;28;20033;-74
2021/01/02 04:05:38;;;;;;;7.38;5.93;;;8.10;71.30;;;;;;5006660;28;20399;-74
2021/01/02 04:08:04;;;;;;;6.53;5.43;;;8.10;71.30;;;;;;5002693;28;20130;-74
2021/01/02 04:10:30;;;;;;;7.78;6.18;;;8.10;71.30;;;;;;4992377;28;20524;-74
2021/01/02 04:12:55;;;;;;;6.88;5.35;;;8.10;71.30;;;;;;5001867;28;20041;-74
2021/01/02 04:15:21;;;;;;;6.47;5.18;;;8.10;71.30;;;;;;4992616;28;20069;-74
2021/01/02 04:17:46;;;;;;;5.95;4.78;;;8.10;71.30;;;;;;5000153;28;20464;-74
2021/01/02 04:20:12;;;;;;;7.03;5.55;;;8.10;71.40;;;;;;4997729;28;20039;-74
2021/01/02 04:22:38;;;;;;;7.03;5.43;;;8.10;71.40;;;;;;4989692;28;20031;-74
2021/01/02 04:25:05;;;;;;;7.68;5.63;;;8.10;71.40;;;;;;5002816;28;20026;-74
2021/01/02 04:27:30;;;;;;;7.68;5.95;;;8.10;71.50;;;;;;4992642;28;20510;-74
2021/01/02 04:29:56;;;;;;;7.50;5.75;;;8.10;71.50;;;;;;4991776;28;20038;-74
2021/01/02 04:32:21;;;;;;;6.05;5.22;;;8.10;71.50;;;;;;5000943;28;20116;-73
2021/01/02 04:34:48;;;;;;;6.00;4.93;;;8.10;71.60;;;;;;4993590;28;20029;-74
2021/01/02 04:37:13;;;;;;;6.72;5.25;;;8.10;71.60;;;;;;4990646;28;20042;-74
2021/01/02 04:39:39;;;;;;;5.93;5.25;;;8.10;71.60;;;;;;5000165;28;20025;-74
2021/01/02 04:42:05;;;;;;;8.07;6.00;;;8.10;71.70;;;;;;4998834;28;20046;-73
2021/01/02 04:44:31;;;;;;;6.43;5.13;;;8.10;71.70;;;;;;4996757;28;20033;-74
2021/01/02 04:47:00;;;;;;;6.35;5.22;;;8.20;71.80;;;;;;4991596;28;20507;-74
2021/01/02 04:49:26;;;;;;;8.88;6.35;;;8.20;71.80;;;;;;4997371;28;20522;-74
2021/01/02 04:51:58;;;;;;;6.40;5.32;;;8.20;71.80;;;;;;4993248;28;20053;-74
2021/01/02 04:54:25;;;;;;;6.65;5.50;;;8.20;71.70;;;;;;5000808;28;20034;-74
2021/01/02 04:56:50;;;;;;;8.15;6.20;;;8.20;71.70;;;;;;4999342;28;20030;-74
2021/01/02 04:59:18;;;;;;;6.95;5.90;;;8.20;71.60;;;;;;4992181;28;20050;-74
2021/01/02 05:01:49;;;;;;;8.45;6.15;;;8.30;71.70;;;;;;4993950;28;20062;-74
2021/01/02 05:04:15;;;;;;;7.85;5.95;;;8.20;71.70;;;;;;4999907;28;20033;-75
2021/01/02 05:06:41;;;;;;;8.02;6.68;;;8.30;71.70;;;;;;4996123;28;20026;-75
2021/01/02 05:09:07;;;;;;;7.70;6.45;;;8.20;71.70;;;;;;5000858;28;20108;-75
2021/01/02 05:11:38;;;;;;;6.85;5.82;;;8.20;71.60;;;;;;4997880;28;20039;-74
2021/01/02 05:14:05;;;;;;;7.55;5.55;;;8.30;71.70;;;;;;4997610;28;20503;-75
2021/01/02 05:16:41;;;;;;;8.13;5.97;;;8.30;71.60;;;;;;4998459;28;20041;-74
2021/01/02 05:19:11;;;;;;;6.00;5.10;;;8.30;71.60;;;;;;5006424;28;20062;-75
2021/01/02 05:21:42;;;;;;;6.35;5.18;;;8.40;71.60;;;;;;5006424;28;20037;-75
2021/01/02 05:24:21;;;;;;;8.40;5.68;;;8.30;71.60;;;;;;5008691;28;20703;-75
2021/01/02 05:26:57;;;;;;;5.78;5.15;;;8.40;71.60;;;;;;5008998;28;20033;-74
2021/01/02 05:29:31;;;;;;;6.68;5.20;;;8.30;71.60;;;;;;5006411;28;20068;-74
2021/01/02 05:32:01;;;;;;;6.07;5.10;;;8.40;71.60;;;;;;4996985;28;20046;-74
2021/01/02 05:34:29;;;;;;;7.10;5.43;;;8.30;71.50;;;;;;5005185;28;20500;-74
2021/01/02 05:37:06;;;;;;;7.45;6.13;;;8.40;71.60;;;;;;5005524;28;20164;-74
2021/01/02 05:39:50;;;;;;;6.65;5.32;;;8.30;71.50;;;;;;5009410;28;20112;-75
2021/01/02 05:42:17;;;;;;;6.90;5.78;;;8.30;71.50;;;;;;4998687;28;20026;-74
2021/01/02 05:44:43;;;;;;;5.70;4.78;;;8.30;71.50;;;;;;4993222;28;20038;-75
2021/01/02 05:47:21;;;;;;;6.72;5.07;;;8.30;71.50;;;;;;4997086;28;20035;-75
2021/01/02 05:49:48;;;;;;;6.50;5.53;;;8.30;71.70;;;;;;4988984;28;20045;-74
2021/01/02 05:52:14;;;;;;;7.63;5.68;;;8.30;71.60;;;;;;4994464;28;20042;-75
2021/01/02 05:54:49;;;;;;;7.18;5.63;;;8.40;71.60;;;;;;5000381;28;20030;-74
2021/01/02 05:57:24;;;;;;;5.60;4.88;;;8.30;71.50;;;;;;4998131;28;20381;-75
2021/01/02 05:59:53;;;;;;;6.75;5.47;;;8.30;71.50;;;;;;4995285;28;20570;-74
2021/01/02 06:02:18;;;;;;;5.57;4.35;;;8.30;71.40;;;;;;4998848;28;20041;-74
2021/01/02 06:05:06;;;;;;;7.28;5.50;;;8.30;71.30;;;;;;4999660;28;20026;-75
2021/01/02 06:07:40;;;;;;;5.97;5.00;;;8.30;71.40;;;;;;4997666;28;20085;-74
2021/01/02 06:10:08;;;;;;;7.20;5.43;;;8.30;71.30;;;;;;4999552;28;20046;-74
2021/01/02 06:12:36;;;;;;;6.68;5.45;;;8.30;71.40;;;;;;4997187;28;20030;-73
2021/01/02 06:15:13;;;;;;;8.55;5.82;;;8.30;71.40;;;;;;4992218;28;20037;-75
2021/01/02 06:17:40;;;;;;;6.65;5.50;;;8.30;71.60;;;;;;5000328;28;20501;-75
2021/01/02 06:20:13;;;;;;;6.60;5.13;;;8.30;71.60;;;;;;4996536;28;20203;-73
2021/01/02 06:22:42;;;;;;;6.18;4.80;;;8.20;71.50;;;;;;4994030;28;20125;-75
2021/01/02 06:25:10;;;;;;;5.05;4.28;;;8.20;71.60;;;;;;5000336;28;20053;-74
2021/01/02 06:27:42;;;;;;;8.50;4.97;;;8.30;71.60;;;;;;4993438;28;20057;-74
2021/01/02 06:30:08;;;;;;;5.90;4.70;;;8.30;71.60;;;;;;4994966;28;20452;-75
2021/01/02 06:32:34;;;;;;;5.70;4.78;;;8.30;71.60;;;;;;4996759;28;20051;-73
2021/01/02 06:35:08;;;;;;;6.32;5.20;;;8.20;71.60;;;;;;4999372;28;20030;-74
2021/01/02 06:38:00;;;;;;;6.82;5.25;;;8.30;71.70;;;;;;4994829;28;20117;-74
2021/01/02 06:40:27;;;;;;;4.95;4.20;;;8.30;71.80;;;;;;4993687;28;20042;-74
2021/01/02 06:42:54;;;;;;;5.47;4.25;;;8.20;71.60;;;;;;4990907;28;20030;-74
2021/01/02 06:45:38;;;;;;;4.18;3.47;;;8.20;71.60;;;;;;4989490;28;20035;-75
2021/01/02 06:48:15;;;;;;;5.97;4.15;;;8.30;71.90;;;;;;4990347;28;20030;-74
2021/01/02 06:50:45;;;;;;;4.57;3.90;;;8.30;71.80;;;;;;4990266;28;20059;-74
2021/01/02 06:53:33;;;;;;;5.55;4.13;;;8.30;71.70;;;;;;4996840;28;20038;-75
2021/01/02 06:56:02;;;;;;;4.35;3.65;;;8.30;71.70;;;;;;4992554;28;20041;-75
2021/01/02 06:58:45;;;;;;;5.13;4.03;;;8.30;71.50;;;;;;5001468;28;20037;-74
2021/01/02 07:01:16;;;;;;;5.63;3.95;;;8.30;71.60;;;;;;4988656;28;20049;-75
2021/01/02 07:03:43;;;;;;;6.22;3.85;;;8.30;71.50;;;;;;4999034;28;20049;-75
2021/01/02 07:06:23;;;;;;;6.07;4.00;;;8.20;71.50;;;;;;4996884;28;20042;-75
2021/01/02 07:09:00;;;;;;;5.32;4.03;;;8.30;71.70;;;;;;5000255;28;20042;-75
2021/01/02 07:11:37;;;;;;;5.00;3.75;;;8.30;71.60;;;;;;5001820;28;20526;-76
2021/01/02 07:14:09;;;;;;;5.93;4.15;;;8.30;71.60;;;;;;5000334;28;20273;-75
2021/01/02 07:16:36;;;;;;;5.03;3.90;;;8.40;71.80;;;;;;4998218;28;20483;-75
2021/01/02 07:19:03;;;;;;;4.07;3.67;;;8.30;71.70;;;;;;5002375;28;20049;-75
2021/01/02 07:21:34;;;;;;;4.57;3.88;;;8.20;71.70;;;;;;4997741;28;20038;-75
2021/01/02 07:24:49;;;;;;;4.07;3.67;;;8.40;71.80;;;;;;5002134;28;20027;-76
2021/01/02 07:27:19;;;;;;;4.32;3.38;;;8.30;71.80;;;;;;4954548;28;20031;-76
2021/01/02 07:29:52;;;;;;;4.97;3.80;;;8.30;71.60;;;;;;4989381;28;20042;-75
2021/01/02 07:32:22;;;;;;;4.18;3.50;;;8.30;71.60;;;;;;5001840;28;20554;-76
2021/01/02 07:34:48;;;;;;;5.22;4.03;;;8.30;71.60;;;;;;5000053;28;20026;-76
2021/01/02 07:37:16;;;;;;;4.93;4.10;;;8.30;71.60;;;;;;4999415;28;20030;-76
2021/01/02 07:39:54;;;;;;;4.57;3.90;;;8.40;71.60;;;;;;4998692;28;20037;-75
2021/01/02 07:42:22;;;;;;;5.65;4.13;;;8.30;71.70;;;;;;5000416;28;20027;-76
2021/01/02 07:44:55;;;;;;;6.28;4.97;;;8.30;71.60;;;;;;4996046;28;20038;-76
2021/01/02 07:47:20;;;;;;;5.30;4.53;;;8.30;71.70;;;;;;4998355;28;20137;-76
2021/01/02 07:49:46;;;;;;;6.97;4.50;;;8.20;71.70;;;;;;5000237;28;20562;-76
2021/01/02 07:52:11;;;;;;;4.80;4.22;;;8.20;71.70;;;;;;4995386;28;20065;-75
2021/01/02 07:54:38;;;;;;;5.15;4.40;;;8.30;71.80;;;;;;4994899;28;20065;-74
2021/01/02 07:57:06;;;;;;;5.43;4.25;;;8.30;71.80;;;;;;4999075;28;20034;-76
2021/01/02 07:59:34;;;;;;;6.63;4.18;;;8.30;71.90;;;;;;4992343;28;20065;-75
2021/01/02 08:02:01;;;;;;;5.32;4.03;;;8.30;71.90;;;;;;4995293;28;20034;-75
2021/01/02 08:04:29;;;;;;;6.15;4.60;;;8.30;71.90;;;;;;4991455;28;20035;-75
2021/01/02 08:07:00;;;;;;;4.47;3.90;;;8.40;72.00;;;;;;4994692;28;20395;-76
2021/01/02 08:09:30;;;;;;;6.18;4.13;;;8.40;72.00;;;;;;5000855;28;20101;-76
2021/01/02 08:12:16;;;;;;;5.57;4.72;;;8.40;72.00;;;;;;4995956;28;20411;-76
2021/01/02 08:14:44;;;;;;;6.22;4.85;;;8.40;72.10;;;;;;4992137;28;20054;-75
2021/01/02 08:17:15;;;;;;;5.20;4.22;;;8.40;71.90;;;;;;4999257;28;20391;-76
2021/01/02 08:19:46;;;;;;;5.65;4.72;;;8.50;72.00;;;;;;5008848;23;20044;-74
2021/01/02 08:22:14;;;;;;;6.50;4.63;;;8.50;72.00;;;;;;4984669;28;20038;-75
2021/01/02 08:24:42;;;;;;;6.75;5.03;;;8.40;71.90;;;;;;4989251;28;20026;-76
2021/01/02 08:27:09;;;;;;;8.85;6.75;;;8.50;71.90;;;;;;4986312;28;20037;-75
2021/01/02 08:29:35;;;;;;;9.70;5.50;;;8.50;71.90;;;;;;4981337;28;20034;-76
2021/01/02 08:32:10;;;;;;;6.90;5.40;;;8.50;71.90;;;;;;4989410;28;20036;-75
2021/01/02 08:34:36;;;;;;;7.03;5.57;;;8.50;71.90;;;;;;4990459;28;20080;-75
2021/01/02 08:37:04;;;;;;;7.72;5.93;;;8.50;71.90;;;;;;4987179;28;20123;-75
2021/01/02 08:39:30;;;;;;;8.10;6.10;;;8.50;71.90;;;;;;4990361;28;20038;-75
2021/01/02 08:41:59;;;;;;;6.82;5.57;;;8.60;72.00;;;;;;4990376;28;20507;-76
2021/01/02 08:44:30;;;;;;;7.80;5.90;;;8.70;72.00;;;;;;4988638;28;20495;-76
2021/01/02 08:46:56;;;;;;;7.25;5.43;;;8.70;72.00;;;;;;4985066;28;20113;-75
2021/01/02 08:49:44;;;;;;;6.97;5.43;;;8.60;71.80;;;;;;4990178;28;20038;-75
2021/01/02 08:52:34;;;;;;;6.55;5.03;;;8.50;71.80;;;;;;4986023;28;20415;-76
2021/01/02 08:55:14;;;;;;;7.38;5.22;;;8.60;71.90;;;;;;4990019;28;20097;-76
2021/01/02 08:57:50;;;;;;;6.90;5.27;;;8.60;71.80;;;;;;4990216;28;20567;-76
2021/01/02 09:00:18;;;;;;;8.00;5.60;;;8.60;71.80;;;;;;5002253;28;20044;-77
2021/01/02 09:02:47;;;;;;;7.68;6.20;;;8.60;71.80;;;;;;5005723;28;20120;-76
2021/01/02 09:05:15;;;;;;;8.88;5.88;;;8.60;71.80;;;;;;5005863;28;20037;-76
2021/01/02 09:07:54;;;;;;;9.18;6.00;;;8.60;71.80;;;;;;5003508;28;20030;-78
2021/01/02 09:10:25;;;;;;;8.07;5.57;;;8.60;71.80;;;;;;5002309;28;20398;-76
2021/01/02 09:13:01;;;;;;;;;;;8.60;71.90;;;;;;5003619;28;20058;-77
2021/01/02 09:15:40;;;;;;;6.35;5.43;;;8.60;71.90;;;;;;5001126;28;19921;-77
2021/01/02 09:18:05;;;;;;;7.95;5.45;;;8.70;71.70;;;;;;5007135;28;20040;-75
2021/01/02 09:20:31;;;;;;;7.97;5.57;;;8.60;71.70;;;;;;4999221;28;20117;-77
2021/01/02 09:22:56;;;;;;;7.95;5.40;;;8.70;71.80;;;;;;5008886;28;20137;-76
2021/01/02 09:25:29;;;;;;;7.53;5.40;;;8.60;71.80;;;;;;5009256;28;20026;-77
2021/01/02 09:27:55;;;;;;;8.98;6.82;;;8.60;71.80;;;;;;4997421;28;20026;-76
2021/01/02 09:30:22;;;;;;;7.78;5.60;;;8.60;71.90;;;;;;5001105;28;20030;-76
2021/01/02 09:32:48;;;;;;;9.40;6.25;;;8.70;72.00;;;;;;5008934;28;20097;-75
2021/01/02 09:35:14;;;;;;;7.93;6.00;;;8.60;71.90;;;;;;5007142;28;20167;-75
2021/01/02 09:37:42;;;;;;;9.05;6.57;;;8.70;72.00;;;;;;5007611;28;20037;-76
2021/01/02 09:40:15;;;;;;;9.20;6.85;;;8.70;72.00;;;;;;5008286;28;20104;-76
2021/01/02 09:42:40;;;;;;;7.90;6.20;;;8.70;72.00;;;;;;5008638;28;20038;-76
2021/01/02 09:45:07;;;;;;;9.48;5.75;;;8.70;72.00;;;;;;5003627;28;20084;-73
2021/01/02 09:47:32;;;;;;;7.75;5.53;;;8.70;72.10;;;;;;5000749;28;20105;-76
2021/01/02 09:49:58;;;;;;;6.60;5.75;;;8.80;72.10;;;;;;5003505;28;20173;-77
2021/01/02 09:52:23;;;;;;;8.85;6.28;;;8.70;72.10;;;;;;4996955;28;20135;-77
2021/01/02 09:54:48;;;;;;;7.90;6.50;;;8.70;72.10;;;;;;5009026;28;20033;-74
2021/01/02 09:57:14;;;;;;;8.38;5.80;;;8.80;72.20;;;;;;5008906;28;20026;-74
2021/01/02 09:59:43;;;;;;;6.32;5.22;;;8.80;72.20;;;;;;5008405;28;20037;-73
2021/01/02 10:02:09;;;;;;;7.25;4.88;;;8.80;72.10;;;;;;5003854;28;20500;-76
2021/01/02 10:04:34;;;;;;;6.85;5.22;;;8.90;72.20;;;;;;5006667;28;20065;-77
2021/01/02 10:06:59;;;;;;;6.80;5.30;;;8.90;72.10;;;;;;5005359;28;20037;-78
2021/01/02 10:09:25;;;;;;;6.03;4.80;;;8.90;72.00;;;;;;5001247;28;20030;-77
2021/01/02 10:11:50;;;;;;;6.80;4.80;;;8.80;71.90;;;;;;5001680;28;20172;-76
2021/01/02 10:14:16;;;;;;;7.05;4.97;;;9.00;71.90;;;;;;5002945;28;20034;-77
2021/01/02 10:16:41;;;;;;;7.78;5.93;;;8.90;71.80;;;;;;5005767;28;20097;-77
2021/01/02 10:19:10;;;;;;;7.55;5.15;;;8.90;71.80;;;;;;5006398;28;20117;-76
2021/01/02 10:21:35;;;;;;;5.75;4.43;;;8.90;71.80;;;;;;5001630;28;20137;-75
2021/01/02 10:24:01;;;;;;;6.47;4.80;;;8.90;71.80;;;;;;5006177;28;20538;-77
2021/01/02 10:26:26;;;;;;;7.20;5.05;;;9.10;71.90;;;;;;5008153;28;20034;-77
2021/01/02 10:28:52;;;;;;;7.43;5.13;;;9.00;71.80;;;;;;5007521;28;20495;-77
2021/01/02 10:31:21;;;;;;;8.20;5.68;;;8.90;71.80;;;;;;5006598;28;20042;-76
2021/01/02 10:33:47;;;;;;;7.35;5.45;;;8.90;72.30;;;;;;5009420;28;20069;-77
2021/01/02 10:36:12;;;;;;;10.05;5.60;;;8.90;71.80;;;;;;5007776;28;20065;-77
2021/01/02 10:38:38;;;;;;;7.43;6.00;;;9.00;71.90;;;;;;5009550;28;20411;-76
2021/01/02 10:41:03;;;;;;;9.13;6.55;;;9.00;72.10;;;;;;5009973;28;20033;-76
2021/01/02 10:43:29;;;;;;;9.15;6.32;;;9.00;72.00;;;;;;5009729;28;20045;-75
2021/01/02 10:45:54;;;;;;;9.38;5.82;;;9.00;71.90;;;;;;5010458;28;20033;-78
2021/01/02 10:48:20;;;;;;;8.18;5.78;;;9.00;71.90;;;;;;5008522;28;20041;-77
2021/01/02 10:50:46;;;;;;;7.57;5.90;;;9.00;71.80;;;;;;5006950;28;20038;-78
2021/01/02 10:53:11;;;;;;;9.02;6.25;;;9.00;71.80;;;;;;5009968;28;20060;-76
2021/01/02 10:55:37;;;;;;;7.00;5.75;;;9.00;71.70;;;;;;5009584;28;20054;-76
2021/01/02 10:58:02;;;;;;;8.48;6.18;;;9.10;71.80;;;;;;5008290;28;20084;-76
2021/01/02 11:00:28;;;;;;;6.38;5.13;;;9.10;71.80;;;;;;5003038;28;20403;-77
2021/01/02 11:02:53;;;;;;;8.68;6.38;;;9.10;71.70;;;;;;5009848;28;20034;-77
2021/01/02 11:05:19;;;;;;;8.90;5.63;;;9.10;71.70;;;;;;5009205;28;20454;-76
2021/01/02 11:07:44;;;;;;;8.90;5.30;;;9.10;71.70;;;;;;5010991;28;20022;-76
2021/01/02 11:10:10;;;;;;;8.80;5.47;;;9.10;71.70;;;;;;5008912;28;20038;-73
2021/01/02 11:12:36;;;;;;;8.27;6.18;;;9.10;71.80;;;;;;5009224;28;20049;-74
2021/01/02 11:15:02;;;;;;;8.85;5.63;;;9.10;71.70;;;;;;5008321;28;20034;-73
2021/01/02 11:17:27;;;;;;;7.30;5.13;;;9.10;71.70;;;;;;5005684;28;20038;-74
2021/01/02 11:19:53;;;;;;;7.88;6.10;;;9.20;71.80;;;;;;5004284;28;20120;-74
2021/01/02 11:22:18;;;;;;;7.93;5.88;;;9.10;71.70;;;;;;5001314;28;20026;-73
2021/01/02 11:24:45;;;;;;;7.80;5.65;;;9.10;71.70;;;;;;4998710;28;20123;-72
2021/01/02 11:27:11;;;;;;;8.32;6.25;;;9.10;71.60;;;;;;5007168;28;20034;-72
2021/01/02 11:29:37;;;;;;;7.28;5.30;;;9.10;71.60;;;;;;5002724;28;20049;-73
2021/01/02 11:32:10;;;;;;;9.32;5.82;;;9.10;71.60;;;;;;5004893;28;20069;-72
2021/01/02 11:34:36;;;;;;;9.15;6.60;;;9.10;71.60;;;;;;5001104;28;20038;-72
2021/01/02 11:37:03;;;;;;;10.18;6.97;;;9.10;71.50;;;;;;4987702;28;20104;-73
2021/01/02 11:39:30;;;;;;;9.30;7.22;;;9.10;71.60;;;;;;4981474;28;20042;-73
2021/01/02 11:41:57;;;;;;;12.35;8.60;;;9.10;71.60;;;;;;4979859;28;20038;-73
2021/01/02 11:44:25;;;;;;;11.25;7.85;;;9.20;71.60;;;;;;4982088;28;20041;-74
2021/01/02 11:46:54;;;;;;;12.05;8.45;;;9.20;71.70;;;;;;4982155;28;20045;-74
2021/01/02 11:49:24;;;;;;;11.57;8.07;;;9.20;71.70;;;;;;4982878;28;20049;-74
2021/01/02 11:51:51;;;;;;;11.63;8.20;;;9.20;71.70;;;;;;4981633;28;20515;-74
2021/01/02 11:54:17;;;;;;;12.43;8.35;;;9.20;71.70;;;;;;4981697;28;20173;-75
2021/01/02 11:56:43;;;;;;;10.35;8.07;;;9.20;71.60;;;;;;4981946;28;20117;-74
2021/01/02 11:59:09;;;;;;;12.20;8.95;;;9.20;71.70;;;;;;4981719;28;20126;-74
2021/01/02 12:01:44;;;;;;;12.13;9.02;;;9.20;71.60;;;;;;4981942;28;20420;-76
2021/01/02 12:04:12;;;;;;;12.98;8.20;;;9.20;71.60;;;;;;4982419;28;20129;-75
2021/01/02 12:06:38;;;;;;;11.05;8.10;;;9.20;71.60;;;;;;4982944;28;20539;-75
2021/01/02 12:09:07;;;;;;;10.95;8.57;;;9.20;71.60;;;;;;4983953;28;20034;-75
2021/01/02 12:11:37;;;;;;;10.25;7.15;;;9.20;71.70;;;;;;4981809;28;20031;-75
2021/01/02 12:14:04;;;;;;;9.95;7.38;;;9.30;71.80;;;;;;4979578;28;20081;-75
2021/01/02 12:16:38;;;;;;;10.43;8.05;;;9.20;71.70;;;;;;4982491;28;22209;-75
2021/01/02 12:19:06;;;;;;;10.32;7.90;;;9.30;71.80;;;;;;4982014;28;20495;-75
2021/01/02 12:21:32;;;;;;;10.50;7.78;;;9.30;71.90;;;;;;4985027;28;20050;-75
2021/01/02 12:23:57;;;;;;;10.05;8.23;;;9.30;71.80;;;;;;4983687;28;20026;-75
2021/01/02 12:26:23;;;;;;;11.05;7.72;;;9.30;71.80;;;;;;4981413;28;20038;-76
2021/01/02 12:28:50;;;;;;;10.18;7.10;;;9.50;71.90;;;;;;4977578;28;20149;-76
2021/01/02 12:31:22;;;;;;;9.50;7.63;;;9.40;71.90;;;;;;4987105;28;20058;-76
2021/01/02 12:33:47;;;;;;;8.70;6.75;;;9.40;71.90;;;;;;4979323;28;20030;-76
2021/01/02 12:36:15;;;;;;;10.43;7.57;;;9.40;71.90;;;;;;4983686;28;20053;-76
2021/01/02 12:38:41;;;;;;;10.45;7.45;;;9.40;71.80;;;;;;4987601;28;20027;-75
2021/01/02 12:41:18;;;;;;;9.85;7.40;;;9.50;71.80;;;;;;4982954;28;20511;-76
2021/01/02 12:43:44;;;;;;;10.23;7.75;;;9.40;71.90;;;;;;4985007;28;20033;-76
2021/01/02 12:46:11;;;;;;;11.10;8.07;;;9.40;71.70;;;;;;4983025;28;20049;-75
2021/01/02 12:48:38;;;;;;;12.30;8.40;;;9.60;72.30;;;;;;4981263;28;20042;-75
2021/01/02 12:51:04;;;;;;;10.55;8.07;;;9.50;71.70;;;;;;4980540;28;20038;-75
2021/01/02 12:53:29;;;;;;;12.00;8.82;;;9.50;71.60;;;;;;4981740;28;20035;-75
2021/01/02 12:55:55;;;;;;;10.77;8.25;;;9.50;71.60;;;;;;4980590;28;20042;-74
2021/01/02 12:58:20;;;;;;;10.68;7.85;;;9.50;72.10;;;;;;4985220;28;20038;-75
2021/01/02 13:00:46;;;;;;;10.85;7.90;;;9.60;71.60;;;;;;4979841;28;20030;-75
2021/01/02 13:03:12;;;;;;;10.65;7.90;;;9.60;71.60;;;;;;4981765;28;20044;-75
2021/01/02 13:05:37;;;;;;;9.88;8.38;;;9.50;71.50;;;;;;4982826;28;20095;-74
2021/01/02 13:08:03;;;;;;;11.10;8.18;;;9.60;71.50;;;;;;4980927;28;20361;-75
2021/01/02 13:10:28;;;;;;;9.23;6.97;;;9.60;71.40;;;;;;4980105;28;20030;-74